createdAt,value
2023-03-31T00:00:19.124Z,11.40
2023-03-31T00:02:47.564Z,11.38
2023-03-31T00:05:18.070Z,11.41
2023-03-31T00:07:45.982Z,11.42
2023-03-31T00:10:18.327Z,11.43
2023-03-31T00:12:46.796Z,11.44
2023-03-31T00:15:13.637Z,11.44
2023-03-31T00:17:40.315Z,11.44
2023-03-31T00:20:12.396Z,11.44
2023-03-31T00:22:42.254Z,11.41
2023-03-31T00:25:11.277Z,11.38
2023-03-31T00:27:38.158Z,11.38
2023-03-31T00:30:05.275Z,11.34
2023-03-31T00:32:33.431Z,11.35
2023-03-31T00:35:02.371Z,11.32
2023-03-31T00:37:29.606Z,11.32
2023-03-31T00:39:56.881Z,11.33
2023-03-31T00:42:23.604Z,11.34
2023-03-31T00:45:28.120Z,11.32
2023-03-31T00:48:01.110Z,11.30
2023-03-31T00:50:31.416Z,11.27
2023-03-31T00:53:02.581Z,11.26
2023-03-31T00:55:34.926Z,11.27
2023-03-31T00:58:02.062Z,11.29
2023-03-31T01:00:30.192Z,11.30
2023-03-31T01:02:58.947Z,11.28
2023-03-31T01:05:28.758Z,11.26
2023-03-31T01:07:58.493Z,11.27
2023-03-31T01:10:25.059Z,11.26
2023-03-31T01:12:53.862Z,11.28
2023-03-31T01:15:20.399Z,11.30
2023-03-31T01:17:47.474Z,11.30
2023-03-31T01:20:45.393Z,11.28
2023-03-31T01:23:31.549Z,11.29
2023-03-31T01:26:16.547Z,11.28
2023-03-31T01:29:04.651Z,11.26
2023-03-31T01:31:55.312Z,11.24
2023-03-31T01:34:33.885Z,11.25
2023-03-31T01:37:25.491Z,11.24
2023-03-31T01:40:13.153Z,11.23
2023-03-31T01:43:06.783Z,11.21
2023-03-31T01:45:51.993Z,11.19
2023-03-31T01:48:42.045Z,11.21
2023-03-31T01:51:49.387Z,11.18
2023-03-31T01:54:33.079Z,11.19
2023-03-31T01:57:02.107Z,11.18
2023-03-31T01:59:38.482Z,11.19
2023-03-31T02:02:15.574Z,11.14
2023-03-31T02:04:47.781Z,11.13
2023-03-31T02:07:24.994Z,11.12
2023-03-31T02:10:00.730Z,11.09
2023-03-31T02:12:28.974Z,11.08
2023-03-31T02:14:56.514Z,11.05
2023-03-31T02:17:30.552Z,11.03
2023-03-31T02:19:59.780Z,11.03
2023-03-31T02:22:29.272Z,11.05
2023-03-31T02:24:56.427Z,11.02
2023-03-31T02:27:25.971Z,11.04
2023-03-31T02:29:52.947Z,11.04
2023-03-31T02:32:41.986Z,11.06
2023-03-31T02:35:12.638Z,11.06
2023-03-31T02:37:40.343Z,11.04
2023-03-31T02:40:10.547Z,11.03
2023-03-31T02:42:38.881Z,11.04
2023-03-31T02:45:07.339Z,11.04
2023-03-31T02:47:34.375Z,10.98
2023-03-31T02:50:02.016Z,10.99
2023-03-31T02:52:46.604Z,10.98
2023-03-31T02:55:21.774Z,10.95
2023-03-31T02:58:27.371Z,10.93
2023-03-31T03:01:06.290Z,10.93
2023-03-31T03:04:09.513Z,10.90
2023-03-31T03:06:57.590Z,10.86
2023-03-31T03:09:44.470Z,10.82
2023-03-31T03:12:25.297Z,10.80
2023-03-31T03:15:21.773Z,10.76
2023-03-31T03:17:48.986Z,10.73
2023-03-31T03:20:16.387Z,10.73
2023-03-31T03:22:43.206Z,10.75
2023-03-31T03:25:12.022Z,10.73
2023-03-31T03:27:39.058Z,10.67
2023-03-31T03:30:08.402Z,10.63
2023-03-31T03:32:35.941Z,10.59
2023-03-31T03:35:03.786Z,10.57
2023-03-31T03:37:32.776Z,10.53
2023-03-31T03:39:59.273Z,10.48
2023-03-31T03:42:25.789Z,10.48
2023-03-31T03:44:52.287Z,10.46
2023-03-31T03:47:18.777Z,10.45
2023-03-31T03:49:45.310Z,10.46
2023-03-31T03:52:11.843Z,10.46
2023-03-31T03:54:38.304Z,10.46
2023-03-31T03:57:04.879Z,10.48
2023-03-31T03:59:31.434Z,10.47
2023-03-31T04:01:58.026Z,10.48
2023-03-31T04:04:24.502Z,10.49
2023-03-31T04:06:51.260Z,10.49
2023-03-31T04:09:17.765Z,10.50
2023-03-31T04:11:44.235Z,10.47
2023-03-31T04:14:10.721Z,10.46
2023-03-31T04:16:38.506Z,10.46
2023-03-31T04:19:05.226Z,10.50
2023-03-31T04:21:34.943Z,10.49
2023-03-31T04:24:04.850Z,10.50
2023-03-31T04:26:43.124Z,10.50
2023-03-31T04:29:12.763Z,10.49
2023-03-31T04:31:42.834Z,10.46
2023-03-31T04:34:13.614Z,10.47
2023-03-31T04:36:42.792Z,10.46
2023-03-31T04:39:12.647Z,10.44
2023-03-31T04:41:39.123Z,10.39
2023-03-31T04:44:05.865Z,10.45
2023-03-31T04:46:33.432Z,10.47
2023-03-31T04:49:00.991Z,10.46
2023-03-31T04:51:27.737Z,10.47
2023-03-31T04:53:54.219Z,10.46
2023-03-31T04:56:20.885Z,10.48
2023-03-31T04:58:47.388Z,10.47
2023-03-31T05:01:18.303Z,10.46
2023-03-31T05:03:47.907Z,10.45
2023-03-31T05:06:15.797Z,10.46
2023-03-31T05:08:42.725Z,10.50
2023-03-31T05:11:09.195Z,10.51
2023-03-31T05:13:35.744Z,10.51
2023-03-31T05:16:14.453Z,10.49
2023-03-31T05:18:41.506Z,10.46
2023-03-31T05:21:17.634Z,10.46
2023-03-31T05:23:44.879Z,10.46
2023-03-31T05:26:11.964Z,10.46
2023-03-31T05:28:38.539Z,10.45
2023-03-31T05:31:06.678Z,10.45
2023-03-31T05:33:34.018Z,10.52
2023-03-31T05:36:00.747Z,10.56
2023-03-31T05:38:31.648Z,10.62
2023-03-31T05:40:58.447Z,10.68
2023-03-31T05:43:25.245Z,10.77
2023-03-31T05:45:52.734Z,10.87
2023-03-31T05:48:19.267Z,10.96
2023-03-31T05:50:46.103Z,11.03
2023-03-31T05:53:12.662Z,11.13
2023-03-31T05:55:39.518Z,11.19
2023-03-31T05:58:06.870Z,11.22
2023-03-31T06:00:33.479Z,11.29
2023-03-31T06:03:00.075Z,11.37
2023-03-31T06:05:26.947Z,11.46
2023-03-31T06:07:53.684Z,11.52
2023-03-31T06:10:20.656Z,11.67
2023-03-31T06:12:47.151Z,11.80
2023-03-31T06:15:13.783Z,11.93
2023-03-31T06:17:40.426Z,11.97
2023-03-31T06:20:19.747Z,12.00
2023-03-31T06:22:53.321Z,12.01
2023-03-31T06:25:19.778Z,12.01
2023-03-31T06:27:46.280Z,12.05
2023-03-31T06:30:13.254Z,12.05
2023-03-31T06:32:39.749Z,12.05
2023-03-31T06:35:06.698Z,12.05
2023-03-31T06:37:33.173Z,12.06
2023-03-31T06:39:59.649Z,12.08
2023-03-31T06:42:26.199Z,12.07
2023-03-31T06:44:52.741Z,12.09
2023-03-31T06:47:19.282Z,12.08
2023-03-31T06:49:46.229Z,12.08
2023-03-31T06:52:12.752Z,12.07
2023-03-31T06:54:39.242Z,12.10
2023-03-31T06:57:05.906Z,12.11
2023-03-31T06:59:32.419Z,12.13
2023-03-31T07:01:58.949Z,12.13
2023-03-31T07:04:25.442Z,12.15
2023-03-31T07:06:51.874Z,12.20
2023-03-31T07:09:18.798Z,12.25
2023-03-31T07:11:45.278Z,12.26
2023-03-31T07:14:11.908Z,12.30
2023-03-31T07:16:38.426Z,12.35
2023-03-31T07:19:06.617Z,12.39
2023-03-31T07:21:33.043Z,12.47
2023-03-31T07:23:59.590Z,12.53
2023-03-31T07:26:27.061Z,12.60
2023-03-31T07:28:56.631Z,12.64
2023-03-31T07:31:23.445Z,12.67
2023-03-31T07:33:49.864Z,12.71
2023-03-31T07:36:17.440Z,12.77
2023-03-31T07:38:46.949Z,12.81
2023-03-31T07:41:14.986Z,12.88
2023-03-31T07:43:41.728Z,12.94
2023-03-31T07:46:15.347Z,13.03
2023-03-31T07:48:41.803Z,13.11
2023-03-31T07:51:08.376Z,13.24
2023-03-31T07:53:34.958Z,13.34
2023-03-31T07:56:01.380Z,13.43
2023-03-31T07:58:28.241Z,13.46
2023-03-31T08:00:54.728Z,13.54
2023-03-31T08:03:21.310Z,13.54
2023-03-31T08:05:48.934Z,13.55
2023-03-31T08:08:16.333Z,13.59
2023-03-31T08:10:42.727Z,13.64
2023-03-31T08:13:09.168Z,13.70
2023-03-31T08:15:35.575Z,13.67
2023-03-31T08:18:03.741Z,13.63
2023-03-31T08:20:30.167Z,13.60
2023-03-31T08:22:56.577Z,13.57
2023-03-31T08:25:23.873Z,13.59
2023-03-31T08:27:53.239Z,13.54
2023-03-31T08:30:20.543Z,13.55
2023-03-31T08:32:47.183Z,13.55
2023-03-31T08:35:13.669Z,13.54
2023-03-31T08:37:40.149Z,13.51
2023-03-31T08:40:09.603Z,13.53
2023-03-31T08:42:42.283Z,13.48
2023-03-31T08:45:28.189Z,13.41
2023-03-31T08:47:59.807Z,13.38
2023-03-31T08:50:29.123Z,13.32
2023-03-31T08:53:14.069Z,13.33
2023-03-31T08:55:53.980Z,13.37
2023-03-31T08:58:29.445Z,13.39
2023-03-31T09:01:23.641Z,13.45
2023-03-31T09:04:30.111Z,13.47
2023-03-31T09:07:08.538Z,13.54
2023-03-31T09:10:12.994Z,13.67
2023-03-31T09:13:14.135Z,13.84
2023-03-31T09:15:51.019Z,13.99
2023-03-31T09:18:39.320Z,14.14
2023-03-31T09:21:27.486Z,14.26
2023-03-31T09:24:06.970Z,14.27
2023-03-31T09:26:40.619Z,14.29
2023-03-31T09:29:15.583Z,14.36
2023-03-31T09:31:43.667Z,14.38
2023-03-31T09:34:31.740Z,14.44
2023-03-31T09:36:58.196Z,14.45
2023-03-31T09:39:24.732Z,14.58
2023-03-31T09:41:52.450Z,14.67
2023-03-31T09:44:26.100Z,14.73
2023-03-31T09:46:53.986Z,14.76
2023-03-31T09:49:23.389Z,14.75
2023-03-31T09:52:01.133Z,14.69
2023-03-31T09:54:34.761Z,14.64
2023-03-31T09:57:01.390Z,14.53
2023-03-31T09:59:35.002Z,14.48
2023-03-31T10:02:21.636Z,14.40
2023-03-31T10:04:48.097Z,14.35
2023-03-31T10:07:21.284Z,14.36
2023-03-31T10:09:47.933Z,14.35
2023-03-31T10:12:17.177Z,14.33
2023-03-31T10:14:48.708Z,14.32
2023-03-31T10:17:17.300Z,14.28
2023-03-31T10:19:59.893Z,14.19
2023-03-31T10:22:35.517Z,14.17
2023-03-31T10:25:17.974Z,14.12
2023-03-31T10:27:47.739Z,14.22
2023-03-31T10:30:19.294Z,14.19
2023-03-31T10:32:48.841Z,14.17
2023-03-31T10:35:30.645Z,14.16
2023-03-31T10:38:04.679Z,14.07
2023-03-31T10:40:33.378Z,14.06
2023-03-31T10:43:04.199Z,14.02
2023-03-31T10:45:38.337Z,13.98
2023-03-31T10:48:06.310Z,13.95
2023-03-31T10:50:35.276Z,13.83
2023-03-31T10:53:14.050Z,13.73
2023-03-31T10:55:57.005Z,13.65
2023-03-31T10:58:29.360Z,13.63
2023-03-31T11:01:16.976Z,13.56
2023-03-31T11:04:20.543Z,13.50
2023-03-31T11:07:21.910Z,13.40
2023-03-31T11:10:06.587Z,13.37
2023-03-31T11:12:49.708Z,13.27
2023-03-31T11:15:42.560Z,13.20
2023-03-31T11:18:21.721Z,13.07
2023-03-31T11:21:20.334Z,12.98
2023-03-31T11:23:58.265Z,12.91
2023-03-31T11:26:39.817Z,12.88
2023-03-31T11:29:31.183Z,12.84
2023-03-31T11:32:21.811Z,12.88
2023-03-31T11:35:14.192Z,12.83
2023-03-31T11:37:55.110Z,12.77
2023-03-31T11:40:35.504Z,12.75
2023-03-31T11:43:11.036Z,12.68
2023-03-31T11:45:41.442Z,12.61
2023-03-31T11:48:16.771Z,12.61
2023-03-31T11:50:45.271Z,12.62
2023-03-31T11:53:17.141Z,12.67
2023-03-31T11:55:45.564Z,12.64
2023-03-31T11:58:35.406Z,12.64
2023-03-31T12:01:38.932Z,12.60
2023-03-31T12:04:11.970Z,12.59
2023-03-31T12:06:42.521Z,12.59
2023-03-31T12:09:32.947Z,12.55
2023-03-31T12:12:05.715Z,12.53
2023-03-31T12:14:41.743Z,12.51
2023-03-31T12:17:14.330Z,12.47
2023-03-31T12:19:52.630Z,12.41
2023-03-31T12:22:34.487Z,12.34
2023-03-31T12:25:00.919Z,12.34
2023-03-31T12:27:40.417Z,12.35
2023-03-31T12:30:12.090Z,12.40
2023-03-31T12:32:48.862Z,12.41
2023-03-31T12:35:21.782Z,12.44
2023-03-31T12:38:16.747Z,12.45
2023-03-31T12:41:04.559Z,12.45
2023-03-31T12:43:42.601Z,12.49
2023-03-31T12:46:52.689Z,12.49
2023-03-31T12:50:07.238Z,12.45
2023-03-31T12:52:56.893Z,12.47
2023-03-31T12:55:33.096Z,12.54
2023-03-31T12:58:24.806Z,12.56
2023-03-31T13:01:11.621Z,12.60
2023-03-31T13:03:51.873Z,12.61
2023-03-31T13:06:27.295Z,12.63
2023-03-31T13:09:04.138Z,12.66
2023-03-31T13:11:33.452Z,12.73
2023-03-31T13:14:02.117Z,12.78
2023-03-31T13:16:30.131Z,12.86
2023-03-31T13:18:56.735Z,12.91
2023-03-31T13:21:24.175Z,13.00
2023-03-31T13:23:50.812Z,13.11
2023-03-31T13:26:38.665Z,13.14
2023-03-31T13:29:21.824Z,13.11
2023-03-31T13:32:18.778Z,13.07
2023-03-31T13:35:04.448Z,13.02
2023-03-31T13:37:36.809Z,13.02
2023-03-31T13:40:28.190Z,12.99
2023-03-31T13:43:28.611Z,12.97
2023-03-31T13:46:04.288Z,12.96
2023-03-31T13:48:51.616Z,12.93
2023-03-31T13:51:40.671Z,12.95
2023-03-31T13:54:19.072Z,13.00
2023-03-31T13:57:18.085Z,13.10
2023-03-31T13:59:56.049Z,13.17
2023-03-31T14:02:45.098Z,13.25
2023-03-31T14:05:38.817Z,13.31
2023-03-31T14:08:12.197Z,13.38
2023-03-31T14:10:40.745Z,13.43
2023-03-31T14:13:18.261Z,13.52
2023-03-31T14:15:54.581Z,13.62
2023-03-31T14:18:29.783Z,13.69
2023-03-31T14:21:03.218Z,13.76
2023-03-31T14:23:47.469Z,13.79
2023-03-31T14:26:22.118Z,13.83
2023-03-31T14:29:01.067Z,13.88
2023-03-31T14:31:35.369Z,13.98
2023-03-31T14:34:12.117Z,14.09
2023-03-31T14:37:01.616Z,14.13
2023-03-31T14:39:34.829Z,14.12
2023-03-31T14:42:05.622Z,14.13
2023-03-31T14:44:33.742Z,14.14
2023-03-31T14:47:00.213Z,14.13
2023-03-31T14:49:36.732Z,14.10
2023-03-31T14:52:13.601Z,14.10
2023-03-31T14:54:41.219Z,14.12
2023-03-31T14:57:07.750Z,14.12
2023-03-31T14:59:35.761Z,14.12
2023-03-31T15:02:04.078Z,14.14
2023-03-31T15:04:41.926Z,14.14
2023-03-31T15:07:09.157Z,14.13
2023-03-31T15:09:36.353Z,14.10
2023-03-31T15:12:07.645Z,14.07
2023-03-31T15:14:42.443Z,14.03
2023-03-31T15:17:18.081Z,14.00
2023-03-31T15:19:44.527Z,13.99
2023-03-31T15:22:14.347Z,13.99
2023-03-31T15:24:40.885Z,13.96
2023-03-31T15:27:13.768Z,13.90
2023-03-31T15:29:44.803Z,13.86
2023-03-31T15:32:23.669Z,13.82
2023-03-31T15:34:50.904Z,13.75
2023-03-31T15:37:24.932Z,13.71
2023-03-31T15:39:51.345Z,13.67
2023-03-31T15:42:18.278Z,13.61
2023-03-31T15:44:47.038Z,13.56
2023-03-31T15:47:18.221Z,13.56
2023-03-31T15:49:50.704Z,13.55
2023-03-31T15:52:22.118Z,13.57
2023-03-31T15:54:48.550Z,13.64
2023-03-31T15:57:19.442Z,13.66
2023-03-31T16:02:23.657Z,13.80
2023-03-31T16:04:51.380Z,13.89
2023-03-31T16:07:24.022Z,13.96
2023-03-31T16:09:55.901Z,14.00
2023-03-31T16:12:30.223Z,13.99
2023-03-31T16:15:00.617Z,13.98
2023-03-31T16:17:43.033Z,13.85
2023-03-31T16:20:21.917Z,13.76
2023-03-31T16:22:52.020Z,13.81
2023-03-31T16:25:23.479Z,13.85
2023-03-31T16:27:55.132Z,13.87
2023-03-31T16:30:33.984Z,13.88
2023-03-31T16:33:02.674Z,13.85
2023-03-31T16:35:34.805Z,13.75
2023-03-31T16:38:04.090Z,13.73
2023-03-31T16:40:32.843Z,13.70
2023-03-31T16:43:18.700Z,13.67
2023-03-31T16:45:49.340Z,13.56
2023-03-31T16:48:17.645Z,13.61
2023-03-31T16:50:49.316Z,13.60
2023-03-31T16:53:18.775Z,13.57
2023-03-31T16:55:45.616Z,13.55
2023-03-31T16:58:12.551Z,13.50
2023-03-31T17:00:40.623Z,13.40
2023-03-31T17:03:09.875Z,13.60
2023-03-31T17:05:41.301Z,15.32
2023-03-31T17:08:08.519Z,15.85
2023-03-31T17:10:35.342Z,14.95
2023-03-31T17:13:01.957Z,14.47
2023-03-31T17:15:29.700Z,14.09
2023-03-31T17:17:58.755Z,13.78
2023-03-31T17:20:26.422Z,13.57
2023-03-31T17:22:54.021Z,13.39
2023-03-31T17:25:21.396Z,13.26
2023-03-31T17:27:48.175Z,13.13
2023-03-31T17:30:14.965Z,13.01
2023-03-31T17:32:41.657Z,12.88
2023-03-31T17:35:08.698Z,12.78
2023-03-31T17:37:37.381Z,12.68
2023-03-31T17:40:05.032Z,12.63
2023-03-31T17:42:31.698Z,12.54
2023-03-31T17:44:58.400Z,12.41
2023-03-31T17:47:25.063Z,12.33
2023-03-31T17:49:51.891Z,12.24
2023-03-31T17:52:18.381Z,12.14
2023-03-31T17:54:44.871Z,12.08
2023-03-31T17:57:11.398Z,11.97
2023-03-31T17:59:38.934Z,11.92
2023-03-31T18:02:05.740Z,11.88
2023-03-31T18:04:33.322Z,11.84
2023-03-31T18:07:00.323Z,11.77
2023-03-31T18:09:26.821Z,11.72
2023-03-31T18:11:53.719Z,11.65
2023-03-31T18:14:20.329Z,11.64
2023-03-31T18:16:46.845Z,11.61
2023-03-31T18:19:14.152Z,11.61
2023-03-31T18:21:40.839Z,11.60
2023-03-31T18:24:07.332Z,11.58
2023-03-31T18:26:33.770Z,11.58
2023-03-31T18:29:00.302Z,11.59
2023-03-31T18:31:29.714Z,11.55
2023-03-31T18:33:56.418Z,11.51
2023-03-31T18:36:23.759Z,11.47
2023-03-31T18:38:50.785Z,11.45
2023-03-31T18:41:17.955Z,11.44
2023-03-31T18:43:44.672Z,11.41
2023-03-31T18:46:11.813Z,11.36
2023-03-31T18:48:39.245Z,11.29
2023-03-31T18:51:05.781Z,11.29
2023-03-31T18:53:32.396Z,11.25
2023-03-31T18:55:59.959Z,11.27
2023-03-31T18:58:28.883Z,11.27
2023-03-31T19:00:56.937Z,11.27
2023-03-31T19:03:23.874Z,11.28
2023-03-31T19:05:50.585Z,11.30
2023-03-31T19:08:17.154Z,11.32
2023-03-31T19:10:44.055Z,11.36
2023-03-31T19:13:16.085Z,11.34
2023-03-31T19:15:43.023Z,11.34
2023-03-31T19:18:13.482Z,11.33
2023-03-31T19:20:40.168Z,11.33
2023-03-31T19:23:06.718Z,11.35
2023-03-31T19:25:33.353Z,11.33
2023-03-31T19:27:59.893Z,11.34
2023-03-31T19:30:26.717Z,11.35
2023-03-31T19:32:53.773Z,11.32
2023-03-31T19:35:20.893Z,11.34
2023-03-31T19:37:48.656Z,11.37
2023-03-31T19:40:15.426Z,11.35
2023-03-31T19:42:42.309Z,11.31
2023-03-31T19:45:09.203Z,11.31
2023-03-31T19:47:35.820Z,11.29
2023-03-31T19:50:02.374Z,11.28
2023-03-31T19:52:29.157Z,11.25
2023-03-31T19:54:55.734Z,11.24
2023-03-31T19:57:22.364Z,11.26
2023-03-31T19:59:49.021Z,11.27
2023-03-31T20:02:15.710Z,11.25
2023-03-31T20:04:42.690Z,11.25
2023-03-31T20:07:09.459Z,11.26
2023-03-31T20:09:36.437Z,11.28
2023-03-31T20:12:03.073Z,11.26
2023-03-31T20:14:29.760Z,11.26
2023-03-31T20:16:56.330Z,11.26
2023-03-31T20:19:23.358Z,11.22
2023-03-31T20:21:54.255Z,11.20
2023-03-31T20:24:21.545Z,11.22
2023-03-31T20:26:48.413Z,11.20
2023-03-31T20:29:15.312Z,11.17
2023-03-31T20:31:42.563Z,11.17
2023-03-31T20:34:14.060Z,11.16
2023-03-31T20:36:42.293Z,11.15
2023-03-31T20:39:09.203Z,11.13
2023-03-31T20:41:37.305Z,11.12
2023-03-31T20:44:05.256Z,11.11
2023-03-31T20:46:31.764Z,11.07
2023-03-31T20:48:58.650Z,11.04
2023-03-31T20:51:28.047Z,11.02
2023-03-31T20:53:55.112Z,11.00
2023-03-31T20:56:23.733Z,10.93
2023-03-31T20:58:50.816Z,10.90
2023-03-31T21:01:18.195Z,10.91
2023-03-31T21:03:44.800Z,10.94
2023-03-31T21:06:13.656Z,10.95
2023-03-31T21:08:42.273Z,10.93
2023-03-31T21:11:08.973Z,10.94
2023-03-31T21:13:35.398Z,10.93
2023-03-31T21:16:01.993Z,10.94
2023-03-31T21:18:29.664Z,10.95
2023-03-31T21:20:58.150Z,10.93
2023-03-31T21:23:25.707Z,10.90
2023-03-31T21:25:53.977Z,10.90
2023-03-31T21:28:22.488Z,10.92
2023-03-31T21:31:00.572Z,10.92
2023-03-31T21:33:27.420Z,10.92
2023-03-31T21:35:54.258Z,10.93
2023-03-31T21:38:21.074Z,10.99
2023-03-31T21:40:48.556Z,11.00
2023-03-31T21:43:15.353Z,11.01
2023-03-31T21:45:41.806Z,11.04
2023-03-31T21:48:09.899Z,11.07
2023-03-31T21:50:37.748Z,11.09
2023-03-31T21:53:04.849Z,11.12
2023-03-31T21:55:32.362Z,11.14
2023-03-31T21:57:59.719Z,11.15
2023-03-31T22:00:27.973Z,11.18
2023-03-31T22:03:06.334Z,11.19
2023-03-31T22:05:41.040Z,11.15
2023-03-31T22:08:07.495Z,11.16
2023-03-31T22:10:34.567Z,11.17
2023-03-31T22:13:01.012Z,11.19
2023-03-31T22:15:27.808Z,11.19
2023-03-31T22:17:54.288Z,11.19
2023-03-31T22:20:20.986Z,11.20
2023-03-31T22:22:47.439Z,11.21
2023-03-31T22:25:13.883Z,11.22
2023-03-31T22:27:40.529Z,11.22
2023-03-31T22:30:07.965Z,11.23
2023-03-31T22:32:34.423Z,11.22
2023-03-31T22:35:01.413Z,11.22
2023-03-31T22:37:27.828Z,11.20
2023-03-31T22:39:54.251Z,11.16
2023-03-31T22:42:21.021Z,11.18
2023-03-31T22:44:47.425Z,11.15
2023-03-31T22:47:13.938Z,11.15
2023-03-31T22:49:40.349Z,11.12
2023-03-31T22:52:06.752Z,11.13
2023-03-31T22:54:33.383Z,11.10
2023-03-31T22:56:59.841Z,11.10
2023-03-31T22:59:26.360Z,11.08
2023-03-31T23:01:53.191Z,11.07
2023-03-31T23:04:21.161Z,11.04
2023-03-31T23:06:47.647Z,11.04
2023-03-31T23:09:14.139Z,11.04
2023-03-31T23:11:40.733Z,11.02
2023-03-31T23:14:07.244Z,11.02
2023-03-31T23:16:33.732Z,11.02
2023-03-31T23:19:01.212Z,10.99
2023-03-31T23:21:28.475Z,10.98
2023-03-31T23:23:57.399Z,11.01
2023-03-31T23:26:26.222Z,11.00
2023-03-31T23:28:53.028Z,11.01
2023-03-31T23:31:22.761Z,10.97
2023-03-31T23:33:49.438Z,11.00
2023-03-31T23:36:20.945Z,10.99
2023-03-31T23:38:48.900Z,10.98
2023-03-31T23:41:16.186Z,10.98
2023-03-31T23:43:42.802Z,10.98
2023-03-31T23:46:09.842Z,10.96
2023-03-31T23:48:37.442Z,10.96
2023-03-31T23:51:05.562Z,10.99
2023-03-31T23:53:32.313Z,11.00
2023-03-31T23:56:02.617Z,11.01
2023-03-31T23:58:29.613Z,11.01
